sensor_id;sensor_type;location;lat;lon;timestamp;P1;durP1;ratioP1;P2;durP2;ratioP2
77802;SDS011;66993;48.256;16.422;2023-07-20T00:03:35;6.8;;;4.0;;
77802;SDS011;66993;48.256;16.422;2023-07-20T00:08:37;8.1;;;4.2;;
77802;SDS011;66993;48.256;16.422;2023-07-20T00:13:38;7.9;;;4.0;;
77802;SDS011;66993;48.256;16.422;2023-07-20T00:18:39;8.7;;;4.3;;
77802;SDS011;66993;48.256;16.422;2023-07-20T00:23:40;8.3;;;4.6;;
77802;SDS011;66993;48.256;16.422;2023-07-20T00:28:42;9.4;;;4.0;;
77802;SDS011;66993;48.256;16.422;2023-07-20T00:33:43;7.0;;;4.0;;
77802;SDS011;66993;48.256;16.422;2023-07-20T00:38:45;6.7;;;3.8;;
77802;SDS011;66993;48.256;16.422;2023-07-20T00:43:45;7.9;;;3.9;;
77802;SDS011;66993;48.256;16.422;2023-07-20T00:48:46;6.4;;;3.8;;
77802;SDS011;66993;48.256;16.422;2023-07-20T00:53:47;9.2;;;4.4;;
77802;SDS011;66993;48.256;16.422;2023-07-20T00:58:49;8.1;;;3.8;;
77802;SDS011;66993;48.256;16.422;2023-07-20T01:03:50;8.4;;;4.1;;
77802;SDS011;66993;48.256;16.422;2023-07-20T01:08:54;8.1;;;4.3;;
77802;SDS011;66993;48.256;16.422;2023-07-20T01:13:52;7.5;;;4.6;;
77802;SDS011;66993;48.256;16.422;2023-07-20T01:18:54;7.5;;;4.3;;
77802;SDS011;66993;48.256;16.422;2023-07-20T01:24:00;7.2;;;4.2;;
77802;SDS011;66993;48.256;16.422;2023-07-20T01:29:01;7.3;;;3.7;;
77802;SDS011;66993;48.256;16.422;2023-07-20T01:33:58;6.9;;;3.6;;
77802;SDS011;66993;48.256;16.422;2023-07-20T01:38:59;6.9;;;4.1;;
77802;SDS011;66993;48.256;16.422;2023-07-20T01:44:00;9.1;;;3.8;;
77802;SDS011;66993;48.256;16.422;2023-07-20T01:49:02;7.0;;;4.0;;
77802;SDS011;66993;48.256;16.422;2023-07-20T01:54:02;6.9;;;3.5;;
77802;SDS011;66993;48.256;16.422;2023-07-20T01:59:04;7.8;;;3.8;;
77802;SDS011;66993;48.256;16.422;2023-07-20T02:04:05;7.2;;;3.8;;
77802;SDS011;66993;48.256;16.422;2023-07-20T02:09:07;7.3;;;3.5;;
77802;SDS011;66993;48.256;16.422;2023-07-20T02:14:07;8.5;;;4.0;;
77802;SDS011;66993;48.256;16.422;2023-07-20T02:19:09;7.0;;;3.6;;
77802;SDS011;66993;48.256;16.422;2023-07-20T02:24:11;7.6;;;3.5;;
77802;SDS011;66993;48.256;16.422;2023-07-20T02:29:11;7.1;;;3.9;;
77802;SDS011;66993;48.256;16.422;2023-07-20T02:34:12;6.2;;;3.9;;
77802;SDS011;66993;48.256;16.422;2023-07-20T02:39:14;7.6;;;3.5;;
77802;SDS011;66993;48.256;16.422;2023-07-20T02:44:15;8.3;;;3.4;;
77802;SDS011;66993;48.256;16.422;2023-07-20T02:49:17;8.3;;;3.8;;
77802;SDS011;66993;48.256;16.422;2023-07-20T02:54:17;7.2;;;4.0;;
77802;SDS011;66993;48.256;16.422;2023-07-20T02:59:19;7.0;;;3.8;;
77802;SDS011;66993;48.256;16.422;2023-07-20T03:04:20;6.7;;;3.8;;
77802;SDS011;66993;48.256;16.422;2023-07-20T03:09:22;7.2;;;3.6;;
77802;SDS011;66993;48.256;16.422;2023-07-20T03:14:22;7.9;;;3.6;;
77802;SDS011;66993;48.256;16.422;2023-07-20T03:19:24;6.7;;;3.8;;
77802;SDS011;66993;48.256;16.422;2023-07-20T03:24:25;7.4;;;4.1;;
77802;SDS011;66993;48.256;16.422;2023-07-20T03:29:26;7.3;;;4.2;;
77802;SDS011;66993;48.256;16.422;2023-07-20T03:34:27;7.4;;;3.8;;
77802;SDS011;66993;48.256;16.422;2023-07-20T03:39:29;7.1;;;3.7;;
77802;SDS011;66993;48.256;16.422;2023-07-20T03:44:30;7.0;;;4.1;;
77802;SDS011;66993;48.256;16.422;2023-07-20T03:49:31;7.2;;;3.8;;
77802;SDS011;66993;48.256;16.422;2023-07-20T03:54:32;7.7;;;3.9;;
77802;SDS011;66993;48.256;16.422;2023-07-20T03:59:33;6.9;;;3.8;;
77802;SDS011;66993;48.256;16.422;2023-07-20T04:04:35;7.6;;;3.8;;
77802;SDS011;66993;48.256;16.422;2023-07-20T04:09:36;7.3;;;4.1;;
77802;SDS011;66993;48.256;16.422;2023-07-20T04:14:37;7.4;;;3.9;;
77802;SDS011;66993;48.256;16.422;2023-07-20T04:19:38;9.3;;;4.0;;
77802;SDS011;66993;48.256;16.422;2023-07-20T04:24:40;8.5;;;3.7;;
77802;SDS011;66993;48.256;16.422;2023-07-20T04:29:41;7.0;;;3.8;;
77802;SDS011;66993;48.256;16.422;2023-07-20T04:34:42;6.6;;;3.6;;
77802;SDS011;66993;48.256;16.422;2023-07-20T04:39:43;7.7;;;3.7;;
77802;SDS011;66993;48.256;16.422;2023-07-20T04:44:45;6.7;;;3.5;;
77802;SDS011;66993;48.256;16.422;2023-07-20T04:49:46;6.8;;;3.7;;
77802;SDS011;66993;48.256;16.422;2023-07-20T04:54:48;6.4;;;3.6;;
77802;SDS011;66993;48.256;16.422;2023-07-20T04:59:48;7.1;;;3.8;;
77802;SDS011;66993;48.256;16.422;2023-07-20T05:04:50;6.5;;;3.6;;
77802;SDS011;66993;48.256;16.422;2023-07-20T05:09:50;7.3;;;3.8;;
77802;SDS011;66993;48.256;16.422;2023-07-20T05:14:52;8.3;;;3.8;;
77802;SDS011;66993;48.256;16.422;2023-07-20T05:19:53;6.7;;;3.6;;
77802;SDS011;66993;48.256;16.422;2023-07-20T05:24:55;6.5;;;4.1;;
77802;SDS011;66993;48.256;16.422;2023-07-20T05:29:55;6.6;;;4.0;;
77802;SDS011;66993;48.256;16.422;2023-07-20T05:34:57;6.8;;;3.9;;
77802;SDS011;66993;48.256;16.422;2023-07-20T05:39:58;9.8;;;3.9;;
77802;SDS011;66993;48.256;16.422;2023-07-20T05:45:00;9.2;;;3.6;;
77802;SDS011;66993;48.256;16.422;2023-07-20T05:50:00;8.1;;;4.4;;
77802;SDS011;66993;48.256;16.422;2023-07-20T05:55:02;10.6;;;4.3;;
77802;SDS011;66993;48.256;16.422;2023-07-20T06:00:03;8.3;;;4.3;;
77802;SDS011;66993;48.256;16.422;2023-07-20T06:05:05;8.8;;;4.1;;
77802;SDS011;66993;48.256;16.422;2023-07-20T06:10:06;7.0;;;3.9;;
77802;SDS011;66993;48.256;16.422;2023-07-20T06:15:23;7.1;;;4.1;;
77802;SDS011;66993;48.256;16.422;2023-07-20T06:20:09;8.0;;;4.0;;
77802;SDS011;66993;48.256;16.422;2023-07-20T06:25:10;6.1;;;3.8;;
77802;SDS011;66993;48.256;16.422;2023-07-20T06:30:11;8.3;;;3.4;;
77802;SDS011;66993;48.256;16.422;2023-07-20T06:35:12;8.0;;;3.9;;
77802;SDS011;66993;48.256;16.422;2023-07-20T06:40:13;8.0;;;4.0;;
77802;SDS011;66993;48.256;16.422;2023-07-20T06:45:14;6.5;;;3.9;;
77802;SDS011;66993;48.256;16.422;2023-07-20T06:50:16;6.4;;;3.5;;
77802;SDS011;66993;48.256;16.422;2023-07-20T06:55:17;6.8;;;3.5;;
77802;SDS011;66993;48.256;16.422;2023-07-20T07:00:19;7.6;;;3.7;;
77802;SDS011;66993;48.256;16.422;2023-07-20T07:05:19;6.8;;;3.5;;
77802;SDS011;66993;48.256;16.422;2023-07-20T07:10:21;8.0;;;3.1;;
77802;SDS011;66993;48.256;16.422;2023-07-20T07:15:22;6.2;;;3.1;;
77802;SDS011;66993;48.256;16.422;2023-07-20T07:20:23;7.6;;;3.1;;
77802;SDS011;66993;48.256;16.422;2023-07-20T07:25:24;6.0;;;3.2;;
77802;SDS011;66993;48.256;16.422;2023-07-20T07:30:26;5.9;;;3.4;;
77802;SDS011;66993;48.256;16.422;2023-07-20T07:35:27;9.6;;;3.5;;
77802;SDS011;66993;48.256;16.422;2023-07-20T07:40:28;7.3;;;3.1;;
77802;SDS011;66993;48.256;16.422;2023-07-20T07:45:29;7.3;;;3.3;;
77802;SDS011;66993;48.256;16.422;2023-07-20T07:50:31;8.7;;;3.2;;
77802;SDS011;66993;48.256;16.422;2023-07-20T07:55:32;7.3;;;3.1;;
77802;SDS011;66993;48.256;16.422;2023-07-20T08:00:33;6.7;;;3.4;;
77802;SDS011;66993;48.256;16.422;2023-07-20T08:05:34;7.0;;;3.4;;
77802;SDS011;66993;48.256;16.422;2023-07-20T08:10:35;6.8;;;2.9;;
77802;SDS011;66993;48.256;16.422;2023-07-20T08:15:37;7.1;;;3.1;;
77802;SDS011;66993;48.256;16.422;2023-07-20T08:20:38;6.0;;;3.7;;
77802;SDS011;66993;48.256;16.422;2023-07-20T08:25:39;7.3;;;3.4;;
77802;SDS011;66993;48.256;16.422;2023-07-20T08:30:41;5.5;;;3.3;;
77802;SDS011;66993;48.256;16.422;2023-07-20T08:35:42;8.1;;;3.3;;
77802;SDS011;66993;48.256;16.422;2023-07-20T08:40:44;5.8;;;2.9;;
77802;SDS011;66993;48.256;16.422;2023-07-20T08:45:44;7.1;;;3.6;;
77802;SDS011;66993;48.256;16.422;2023-07-20T08:50:46;7.2;;;3.3;;
77802;SDS011;66993;48.256;16.422;2023-07-20T08:55:48;5.9;;;3.2;;
77802;SDS011;66993;48.256;16.422;2023-07-20T09:00:49;9.3;;;3.3;;
77802;SDS011;66993;48.256;16.422;2023-07-20T09:05:49;8.6;;;3.6;;
77802;SDS011;66993;48.256;16.422;2023-07-20T09:10:51;9.7;;;4.3;;
77802;SDS011;66993;48.256;16.422;2023-07-20T09:15:52;8.4;;;3.7;;
77802;SDS011;66993;48.256;16.422;2023-07-20T09:20:53;7.7;;;3.5;;
77802;SDS011;66993;48.256;16.422;2023-07-20T09:25:54;7.7;;;3.1;;
77802;SDS011;66993;48.256;16.422;2023-07-20T09:30:55;6.2;;;3.7;;
77802;SDS011;66993;48.256;16.422;2023-07-20T09:36:01;8.8;;;4.2;;
77802;SDS011;66993;48.256;16.422;2023-07-20T09:40:58;10.1;;;3.9;;
77802;SDS011;66993;48.256;16.422;2023-07-20T09:45:59;7.6;;;3.8;;
77802;SDS011;66993;48.256;16.422;2023-07-20T09:51:00;7.6;;;3.6;;
77802;SDS011;66993;48.256;16.422;2023-07-20T09:56:01;7.3;;;3.7;;
77802;SDS011;66993;48.256;16.422;2023-07-20T10:01:03;5.7;;;3.6;;
77802;SDS011;66993;48.256;16.422;2023-07-20T10:06:06;6.3;;;3.4;;
77802;SDS011;66993;48.256;16.422;2023-07-20T10:11:05;6.5;;;3.2;;
77802;SDS011;66993;48.256;16.422;2023-07-20T10:16:07;6.0;;;3.4;;
77802;SDS011;66993;48.256;16.422;2023-07-20T10:21:08;6.0;;;2.9;;
77802;SDS011;66993;48.256;16.422;2023-07-20T10:26:09;5.5;;;2.8;;
77802;SDS011;66993;48.256;16.422;2023-07-20T10:31:11;5.8;;;3.2;;
77802;SDS011;66993;48.256;16.422;2023-07-20T10:36:11;5.2;;;3.0;;
77802;SDS011;66993;48.256;16.422;2023-07-20T10:41:16;4.5;;;2.8;;
77802;SDS011;66993;48.256;16.422;2023-07-20T10:46:14;6.9;;;3.2;;
77802;SDS011;66993;48.256;16.422;2023-07-20T10:51:19;6.7;;;3.1;;
77802;SDS011;66993;48.256;16.422;2023-07-20T10:56:19;7.3;;;3.1;;
77802;SDS011;66993;48.256;16.422;2023-07-20T11:01:17;5.7;;;2.7;;
77802;SDS011;66993;48.256;16.422;2023-07-20T11:06:31;5.7;;;2.7;;
77802;SDS011;66993;48.256;16.422;2023-07-20T11:11:21;5.6;;;2.5;;
77802;SDS011;66993;48.256;16.422;2023-07-20T11:21:22;5.0;;;2.5;;
77802;SDS011;66993;48.256;16.422;2023-07-20T11:26:24;5.4;;;2.6;;
77802;SDS011;66993;48.256;16.422;2023-07-20T11:31:25;5.9;;;2.3;;
77802;SDS011;66993;48.256;16.422;2023-07-20T11:36:26;4.9;;;2.2;;
77802;SDS011;66993;48.256;16.422;2023-07-20T11:41:27;4.3;;;2.2;;
77802;SDS011;66993;48.256;16.422;2023-07-20T11:46:29;6.4;;;2.1;;
77802;SDS011;66993;48.256;16.422;2023-07-20T11:51:30;4.5;;;2.4;;
77802;SDS011;66993;48.256;16.422;2023-07-20T11:56:31;4.8;;;1.9;;
77802;SDS011;66993;48.256;16.422;2023-07-20T12:01:32;4.1;;;2.2;;
77802;SDS011;66993;48.256;16.422;2023-07-20T12:06:34;4.5;;;2.4;;
77802;SDS011;66993;48.256;16.422;2023-07-20T12:11:35;4.3;;;2.3;;
77802;SDS011;66993;48.256;16.422;2023-07-20T12:16:36;7.3;;;2.4;;
77802;SDS011;66993;48.256;16.422;2023-07-20T12:21:38;4.2;;;2.2;;
77802;SDS011;66993;48.256;16.422;2023-07-20T12:26:38;4.5;;;2.1;;
77802;SDS011;66993;48.256;16.422;2023-07-20T12:31:40;4.4;;;2.2;;
77802;SDS011;66993;48.256;16.422;2023-07-20T12:36:42;4.4;;;2.4;;
77802;SDS011;66993;48.256;16.422;2023-07-20T12:41:42;5.6;;;2.0;;
77802;SDS011;66993;48.256;16.422;2023-07-20T12:46:43;4.9;;;2.1;;
77802;SDS011;66993;48.256;16.422;2023-07-20T12:51:45;5.4;;;2.0;;
77802;SDS011;66993;48.256;16.422;2023-07-20T12:56:47;6.2;;;2.1;;
77802;SDS011;66993;48.256;16.422;2023-07-20T13:01:47;3.9;;;2.0;;
77802;SDS011;66993;48.256;16.422;2023-07-20T13:06:48;5.8;;;2.0;;
77802;SDS011;66993;48.256;16.422;2023-07-20T13:11:50;4.7;;;1.8;;
77802;SDS011;66993;48.256;16.422;2023-07-20T13:16:51;5.1;;;2.0;;
77802;SDS011;66993;48.256;16.422;2023-07-20T13:21:52;3.9;;;1.9;;
77802;SDS011;66993;48.256;16.422;2023-07-20T13:26:53;4.8;;;1.8;;
77802;SDS011;66993;48.256;16.422;2023-07-20T13:31:55;5.1;;;1.9;;
77802;SDS011;66993;48.256;16.422;2023-07-20T13:36:56;4.8;;;2.1;;
77802;SDS011;66993;48.256;16.422;2023-07-20T13:41:57;5.3;;;2.1;;
77802;SDS011;66993;48.256;16.422;2023-07-20T13:46:59;4.9;;;2.2;;
77802;SDS011;66993;48.256;16.422;2023-07-20T13:52:00;4.8;;;2.0;;
77802;SDS011;66993;48.256;16.422;2023-07-20T13:57:01;5.6;;;2.1;;
77802;SDS011;66993;48.256;16.422;2023-07-20T14:02:02;4.2;;;2.2;;
77802;SDS011;66993;48.256;16.422;2023-07-20T14:07:03;6.1;;;2.5;;
77802;SDS011;66993;48.256;16.422;2023-07-20T14:12:05;4.2;;;2.5;;
77802;SDS011;66993;48.256;16.422;2023-07-20T14:17:06;4.9;;;2.2;;
77802;SDS011;66993;48.256;16.422;2023-07-20T14:22:07;6.2;;;2.3;;
77802;SDS011;66993;48.256;16.422;2023-07-20T14:27:08;3.7;;;2.1;;
77802;SDS011;66993;48.256;16.422;2023-07-20T14:32:10;6.5;;;2.6;;
77802;SDS011;66993;48.256;16.422;2023-07-20T14:37:11;4.6;;;2.2;;
77802;SDS011;66993;48.256;16.422;2023-07-20T14:42:12;7.8;;;2.5;;
77802;SDS011;66993;48.256;16.422;2023-07-20T14:47:13;5.0;;;2.4;;
77802;SDS011;66993;48.256;16.422;2023-07-20T14:52:14;6.2;;;2.2;;
77802;SDS011;66993;48.256;16.422;2023-07-20T14:57:16;4.7;;;2.0;;
77802;SDS011;66993;48.256;16.422;2023-07-20T15:02:17;4.6;;;2.2;;
77802;SDS011;66993;48.256;16.422;2023-07-20T15:07:20;4.2;;;2.1;;
77802;SDS011;66993;48.256;16.422;2023-07-20T15:12:19;5.6;;;2.3;;
77802;SDS011;66993;48.256;16.422;2023-07-20T15:17:20;5.3;;;2.4;;
77802;SDS011;66993;48.256;16.422;2023-07-20T15:22:22;5.1;;;2.2;;
77802;SDS011;66993;48.256;16.422;2023-07-20T15:27:23;5.4;;;2.3;;
77802;SDS011;66993;48.256;16.422;2023-07-20T15:32:24;7.2;;;3.1;;
77802;SDS011;66993;48.256;16.422;2023-07-20T15:37:25;4.9;;;2.3;;
77802;SDS011;66993;48.256;16.422;2023-07-20T15:42:27;3.8;;;2.0;;
77802;SDS011;66993;48.256;16.422;2023-07-20T15:47:28;4.3;;;2.3;;
77802;SDS011;66993;48.256;16.422;2023-07-20T15:52:29;4.8;;;2.1;;
77802;SDS011;66993;48.256;16.422;2023-07-20T15:57:30;4.2;;;2.0;;
77802;SDS011;66993;48.256;16.422;2023-07-20T16:02:32;3.2;;;1.9;;
77802;SDS011;66993;48.256;16.422;2023-07-20T16:07:33;4.4;;;1.8;;
77802;SDS011;66993;48.256;16.422;2023-07-20T16:12:34;3.3;;;1.9;;
77802;SDS011;66993;48.256;16.422;2023-07-20T16:17:35;4.1;;;2.1;;
77802;SDS011;66993;48.256;16.422;2023-07-20T16:22:36;4.0;;;1.9;;
77802;SDS011;66993;48.256;16.422;2023-07-20T16:27:37;4.1;;;2.1;;
77802;SDS011;66993;48.256;16.422;2023-07-20T16:32:40;4.5;;;2.0;;
77802;SDS011;66993;48.256;16.422;2023-07-20T16:37:40;5.3;;;1.9;;
77802;SDS011;66993;48.256;16.422;2023-07-20T16:42:42;5.0;;;2.4;;
77802;SDS011;66993;48.256;16.422;2023-07-20T16:47:42;5.6;;;2.2;;
77802;SDS011;66993;48.256;16.422;2023-07-20T16:52:44;3.8;;;1.8;;
77802;SDS011;66993;48.256;16.422;2023-07-20T16:57:45;3.8;;;1.8;;
77802;SDS011;66993;48.256;16.422;2023-07-20T17:02:46;4.0;;;2.1;;
77802;SDS011;66993;48.256;16.422;2023-07-20T17:07:47;3.3;;;1.9;;
77802;SDS011;66993;48.256;16.422;2023-07-20T17:12:48;6.1;;;2.3;;
77802;SDS011;66993;48.256;16.422;2023-07-20T17:17:49;4.0;;;2.0;;
77802;SDS011;66993;48.256;16.422;2023-07-20T17:22:51;5.2;;;2.1;;
77802;SDS011;66993;48.256;16.422;2023-07-20T17:27:52;4.2;;;1.8;;
77802;SDS011;66993;48.256;16.422;2023-07-20T17:32:54;4.7;;;2.2;;
77802;SDS011;66993;48.256;16.422;2023-07-20T17:37:54;5.7;;;1.9;;
77802;SDS011;66993;48.256;16.422;2023-07-20T17:42:56;4.2;;;2.0;;
77802;SDS011;66993;48.256;16.422;2023-07-20T17:47:57;4.0;;;1.9;;
77802;SDS011;66993;48.256;16.422;2023-07-20T17:52:58;4.9;;;1.8;;
77802;SDS011;66993;48.256;16.422;2023-07-20T17:57:59;3.9;;;1.9;;
77802;SDS011;66993;48.256;16.422;2023-07-20T18:03:00;3.8;;;1.8;;
77802;SDS011;66993;48.256;16.422;2023-07-20T18:08:02;4.4;;;1.9;;
77802;SDS011;66993;48.256;16.422;2023-07-20T18:13:03;4.8;;;2.2;;
77802;SDS011;66993;48.256;16.422;2023-07-20T18:18:04;3.5;;;2.0;;
77802;SDS011;66993;48.256;16.422;2023-07-20T18:23:06;6.4;;;2.5;;
77802;SDS011;66993;48.256;16.422;2023-07-20T18:28:07;4.1;;;2.1;;
77802;SDS011;66993;48.256;16.422;2023-07-20T18:33:08;4.5;;;2.0;;
77802;SDS011;66993;48.256;16.422;2023-07-20T18:38:10;6.9;;;2.0;;
77802;SDS011;66993;48.256;16.422;2023-07-20T18:43:11;4.6;;;2.1;;
77802;SDS011;66993;48.256;16.422;2023-07-20T18:48:12;4.7;;;2.1;;
77802;SDS011;66993;48.256;16.422;2023-07-20T18:53:13;5.2;;;2.1;;
77802;SDS011;66993;48.256;16.422;2023-07-20T18:58:14;4.3;;;2.1;;
77802;SDS011;66993;48.256;16.422;2023-07-20T19:03:16;4.2;;;2.1;;
77802;SDS011;66993;48.256;16.422;2023-07-20T19:08:17;6.8;;;2.0;;
77802;SDS011;66993;48.256;16.422;2023-07-20T19:13:18;4.3;;;2.2;;
77802;SDS011;66993;48.256;16.422;2023-07-20T19:18:19;4.8;;;2.1;;
77802;SDS011;66993;48.256;16.422;2023-07-20T19:23:21;3.6;;;2.1;;
77802;SDS011;66993;48.256;16.422;2023-07-20T19:28:22;3.7;;;1.8;;
77802;SDS011;66993;48.256;16.422;2023-07-20T19:33:23;4.2;;;2.1;;
77802;SDS011;66993;48.256;16.422;2023-07-20T19:38:24;4.9;;;2.2;;
77802;SDS011;66993;48.256;16.422;2023-07-20T19:43:26;5.6;;;2.3;;
77802;SDS011;66993;48.256;16.422;2023-07-20T19:48:27;4.8;;;2.0;;
77802;SDS011;66993;48.256;16.422;2023-07-20T19:53:30;4.9;;;2.1;;
77802;SDS011;66993;48.256;16.422;2023-07-20T19:58:29;5.1;;;2.0;;
77802;SDS011;66993;48.256;16.422;2023-07-20T20:03:30;4.7;;;2.2;;
77802;SDS011;66993;48.256;16.422;2023-07-20T20:08:31;4.5;;;2.2;;
77802;SDS011;66993;48.256;16.422;2023-07-20T20:13:33;5.5;;;2.1;;
77802;SDS011;66993;48.256;16.422;2023-07-20T20:18:34;4.5;;;2.2;;
77802;SDS011;66993;48.256;16.422;2023-07-20T20:23:35;4.4;;;2.1;;
77802;SDS011;66993;48.256;16.422;2023-07-20T20:28:36;4.1;;;2.2;;
77802;SDS011;66993;48.256;16.422;2023-07-20T20:33:38;6.2;;;2.3;;
77802;SDS011;66993;48.256;16.422;2023-07-20T20:38:39;3.6;;;2.1;;
77802;SDS011;66993;48.256;16.422;2023-07-20T20:43:40;4.0;;;1.8;;
77802;SDS011;66993;48.256;16.422;2023-07-20T20:48:41;5.4;;;1.9;;
77802;SDS011;66993;48.256;16.422;2023-07-20T20:53:42;5.0;;;2.2;;
77802;SDS011;66993;48.256;16.422;2023-07-20T20:58:44;5.8;;;2.2;;
77802;SDS011;66993;48.256;16.422;2023-07-20T21:03:45;4.9;;;2.2;;
77802;SDS011;66993;48.256;16.422;2023-07-20T21:08:47;11.5;;;4.6;;
77802;SDS011;66993;48.256;16.422;2023-07-20T21:13:48;9.4;;;4.3;;
77802;SDS011;66993;48.256;16.422;2023-07-20T21:18:49;9.4;;;4.2;;
77802;SDS011;66993;48.256;16.422;2023-07-20T21:23:50;6.3;;;3.4;;
77802;SDS011;66993;48.256;16.422;2023-07-20T21:28:51;6.7;;;2.9;;
77802;SDS011;66993;48.256;16.422;2023-07-20T21:33:52;6.6;;;3.2;;
77802;SDS011;66993;48.256;16.422;2023-07-20T21:38:54;6.4;;;2.8;;
77802;SDS011;66993;48.256;16.422;2023-07-20T21:43:55;5.3;;;2.7;;
77802;SDS011;66993;48.256;16.422;2023-07-20T21:48:56;5.0;;;2.9;;
77802;SDS011;66993;48.256;16.422;2023-07-20T21:53:57;4.4;;;2.6;;
77802;SDS011;66993;48.256;16.422;2023-07-20T21:58:59;4.1;;;2.3;;
77802;SDS011;66993;48.256;16.422;2023-07-20T22:04:00;5.0;;;2.4;;
77802;SDS011;66993;48.256;16.422;2023-07-20T22:09:01;5.4;;;2.3;;
77802;SDS011;66993;48.256;16.422;2023-07-20T22:14:02;4.8;;;2.5;;
77802;SDS011;66993;48.256;16.422;2023-07-20T22:19:04;4.5;;;2.3;;
77802;SDS011;66993;48.256;16.422;2023-07-20T22:24:05;5.3;;;2.5;;
77802;SDS011;66993;48.256;16.422;2023-07-20T22:29:06;6.6;;;2.7;;
77802;SDS011;66993;48.256;16.422;2023-07-20T22:34:07;5.5;;;2.5;;
77802;SDS011;66993;48.256;16.422;2023-07-20T22:39:08;7.6;;;2.7;;
77802;SDS011;66993;48.256;16.422;2023-07-20T22:44:10;5.3;;;2.6;;
77802;SDS011;66993;48.256;16.422;2023-07-20T22:49:11;4.1;;;2.5;;
77802;SDS011;66993;48.256;16.422;2023-07-20T22:54:12;5.7;;;2.6;;
77802;SDS011;66993;48.256;16.422;2023-07-20T22:59:13;6.1;;;2.5;;
77802;SDS011;66993;48.256;16.422;2023-07-20T23:04:14;7.2;;;2.6;;
77802;SDS011;66993;48.256;16.422;2023-07-20T23:09:16;4.7;;;2.5;;
77802;SDS011;66993;48.256;16.422;2023-07-20T23:14:17;5.5;;;2.6;;
77802;SDS011;66993;48.256;16.422;2023-07-20T23:19:18;6.2;;;2.9;;
77802;SDS011;66993;48.256;16.422;2023-07-20T23:24:19;6.0;;;2.1;;
77802;SDS011;66993;48.256;16.422;2023-07-20T23:29:21;5.1;;;2.9;;
77802;SDS011;66993;48.256;16.422;2023-07-20T23:34:22;5.2;;;2.8;;
77802;SDS011;66993;48.256;16.422;2023-07-20T23:39:23;6.1;;;3.1;;
77802;SDS011;66993;48.256;16.422;2023-07-20T23:44:24;6.0;;;3.1;;
77802;SDS011;66993;48.256;16.422;2023-07-20T23:49:25;4.9;;;2.5;;
77802;SDS011;66993;48.256;16.422;2023-07-20T23:54:27;4.6;;;2.5;;
77802;SDS011;66993;48.256;16.422;2023-07-20T23:59:28;4.5;;;2.8;;
